Time;durP1;ratioP1;P1;durP2;ratioP2;P2;SDS_P1;SDS_P2;PMS_P1;PMS_P2;Temp;Humidity;BMP_temperature;BMP_pressure;BME280_temperature;BME280_humidity;BME280_pressure;Samples;Min_cycle;Max_cycle;Signal;HPM_P1;HPM_P2
2023/04/14 00:03:55;;;;;;;3.27;2.70;;;;;7.90;95357.00;;;;8312828;28;20789;-72
2023/04/14 00:07:59;;;;;;;4.53;2.70;;;;;7.90;95366.00;;;;8309282;28;20228;-75
2023/04/14 00:12:06;;;;;;;3.23;2.73;;;;;8.00;95357.00;;;;8312855;28;20201;-77
2023/04/14 00:16:16;;;;;;;4.67;2.47;;;;;8.00;95349.00;;;;8309445;28;20198;-75
2023/04/14 00:20:22;;;;;;;4.33;2.90;;;;;8.00;95352.00;;;;8317951;28;20284;-79
2023/04/14 00:24:27;;;;;;;3.13;2.60;;;;;7.90;95359.00;;;;8318740;28;20205;-75
2023/04/14 00:28:32;;;;;;;4.10;2.90;;;;;7.90;95364.00;;;;8316060;28;20221;-73
2023/04/14 00:32:37;;;;;;;6.07;3.17;;;;;7.90;95366.00;;;;8306826;28;20213;-75
2023/04/14 00:36:40;;;;;;;6.90;3.43;;;;;7.80;95364.00;;;;8320656;28;20194;-77
2023/04/14 00:40:43;;;;;;;7.10;2.80;;;;;7.70;95370.00;;;;8317031;28;20201;-71
2023/04/14 00:44:50;;;;;;;6.87;2.97;;;;;7.70;95370.00;;;;8317450;28;20720;-76
2023/04/14 00:48:54;;;;;;;4.43;2.90;;;;;7.60;95362.00;;;;8317497;28;20241;-76
2023/04/14 00:52:59;;;;;;;8.57;3.50;;;;;7.60;95354.00;;;;8320498;28;20207;-79
2023/04/14 00:57:03;;;;;;;5.53;3.20;;;;;7.50;95361.00;;;;8315560;28;20197;-79
2023/04/14 01:01:10;;;;;;;6.57;3.33;;;;;7.60;95343.00;;;;8317622;28;20500;-77
2023/04/14 01:05:13;;;;;;;5.13;3.17;;;;;7.60;95348.00;;;;8318018;28;20218;-76
2023/04/14 01:09:21;;;;;;;6.80;3.33;;;;;7.60;95344.00;;;;8317736;28;20225;-79
2023/04/14 01:13:35;;;;;;;9.67;3.73;;;;;7.50;95347.00;;;;8317916;28;20194;-78
2023/04/14 01:17:45;;;;;;;4.57;3.03;;;;;7.50;95336.00;;;;8311762;28;20206;-83
2023/04/14 01:21:55;;;;;;;8.43;3.50;;;;;7.40;95345.00;;;;8320349;28;20220;-78
2023/04/14 01:26:30;;;;;;;5.73;3.90;;;;;7.30;95342.00;;;;8312908;28;20201;-77
2023/04/14 01:30:56;;;;;;;8.47;3.70;;;;;7.30;95349.00;;;;8322149;28;20563;-76
2023/04/14 01:35:12;;;;;;;10.87;4.67;;;;;7.30;95345.00;;;;8318233;28;20205;-77
2023/04/14 01:39:21;;;;;;;5.80;3.57;;;;;7.30;95340.00;;;;8319741;28;20646;-80
2023/04/14 01:43:28;;;;;;;6.27;3.90;;;;;7.40;95347.00;;;;8296955;28;20202;-77
2023/04/14 01:47:32;;;;;;;6.67;4.27;;;;;7.30;95344.00;;;;8314153;28;20548;-75
2023/04/14 01:51:38;;;;;;;5.70;4.53;;;;;7.30;95351.00;;;;8317652;28;20217;-75
2023/04/14 01:55:46;;;;;;;12.00;4.60;;;;;7.30;95355.00;;;;8318641;28;20201;-72
2023/04/14 01:59:51;;;;;;;7.33;4.53;;;;;7.20;95361.00;;;;8318137;28;20293;-74
2023/04/14 02:03:54;;;;;;;11.47;4.70;;;;;7.30;95354.00;;;;8313309;28;20224;-74
2023/04/14 02:08:00;;;;;;;10.80;5.53;;;;;7.30;95352.00;;;;8315981;28;20225;-75
2023/04/14 02:12:06;;;;;;;10.13;5.57;;;;;7.20;95362.00;;;;8316344;28;20563;-77
2023/04/14 02:16:14;;;;;;;14.47;6.93;;;;;7.20;95377.00;;;;8313071;28;20202;-77
2023/04/14 02:20:20;;;;;;;18.07;7.27;;;;;7.10;95381.00;;;;8317169;28;20197;-80
2023/04/14 02:24:24;;;;;;;17.60;7.33;;;;;7.10;95377.00;;;;8312705;28;20221;-78
2023/04/14 02:28:41;;;;;;;19.30;7.20;;;;;7.10;95371.00;;;;8318195;28;20229;-79
2023/04/14 02:32:48;;;;;;;20.53;8.60;;;;;7.10;95369.00;;;;8314409;28;20205;-72
2023/04/14 02:36:55;;;;;;;18.30;8.57;;;;;7.00;95367.00;;;;8300128;28;20202;-81
2023/04/14 02:41:05;;;;;;;21.30;8.67;;;;;6.90;95361.00;;;;8319356;28;20201;-75
2023/04/14 02:45:20;;;;;;;18.50;9.20;;;;;6.90;95353.00;;;;8311672;28;20247;-78
2023/04/14 02:49:29;;;;;;;19.43;9.40;;;;;7.00;95356.00;;;;8314804;28;20216;-78
2023/04/14 02:53:34;;;;;;;19.80;9.57;;;;;6.90;95348.00;;;;8307122;28;20217;-78
2023/04/14 02:57:39;;;;;;;22.67;9.87;;;;;7.00;95354.00;;;;8314221;28;20542;-78
2023/04/14 03:01:44;;;;;;;18.30;10.03;;;;;6.90;95361.00;;;;8351396;22;20671;-78
2023/04/14 03:05:48;;;;;;;24.33;11.10;;;;;6.90;95354.00;;;;8443599;27;20203;-77
2023/04/14 03:09:55;;;;;;;30.13;12.10;;;;;6.90;95354.00;;;;8451261;28;20226;-74
2023/04/14 03:14:02;;;;;;;29.93;12.57;;;;;6.80;95357.00;;;;8456321;27;20264;-75
2023/04/14 03:18:06;;;;;;;29.03;12.43;;;;;6.80;95349.00;;;;8450564;28;21158;-76
2023/04/14 03:22:10;;;;;;;32.30;13.03;;;;;6.80;95356.00;;;;8449485;28;20198;-75
2023/04/14 03:26:18;;;;;;;33.40;13.47;;;;;6.70;95354.00;;;;8448119;28;20631;-75
2023/04/14 03:30:29;;;;;;;36.73;13.67;;;;;6.70;95356.00;;;;8451703;27;20598;-75
2023/04/14 03:34:34;;;;;;;30.57;12.50;;;;;6.70;95346.00;;;;8450959;28;20277;-76
2023/04/14 03:38:38;;;;;;;37.57;14.90;;;;;6.60;95332.00;;;;8450293;28;20202;-75
2023/04/14 03:42:45;;;;;;;32.27;12.70;;;;;6.60;95324.00;;;;8456098;27;20642;-77
2023/04/14 03:46:55;;;;;;;33.53;12.20;;;;;6.60;95331.00;;;;8437441;28;20735;-75
2023/04/14 03:51:01;;;;;;;32.43;13.17;;;;;6.70;95325.00;;;;8444838;28;20718;-75
2023/04/14 03:55:07;;;;;;;31.00;13.10;;;;;6.70;95326.00;;;;8447516;28;20232;-74
2023/04/14 03:59:12;;;;;;;32.30;13.47;;;;;6.80;95325.00;;;;8445049;28;20191;-76
2023/04/14 04:03:22;;;;;;;38.60;14.07;;;;;6.80;95321.00;;;;8445661;28;20214;-73
2023/04/14 04:07:27;;;;;;;42.37;14.77;;;;;6.70;95321.00;;;;8437468;28;20222;-77
2023/04/14 04:11:33;;;;;;;35.67;14.13;;;;;6.70;95318.00;;;;8440696;28;20222;-77
2023/04/14 04:15:39;;;;;;;35.50;13.93;;;;;6.80;95334.00;;;;8448292;28;20203;-77
2023/04/14 04:19:49;;;;;;;31.13;13.10;;;;;6.80;95330.00;;;;8441395;28;20552;-75
2023/04/14 04:23:54;;;;;;;31.97;13.37;;;;;6.80;95332.00;;;;8445200;28;20195;-75
2023/04/14 04:28:02;;;;;;;33.63;12.03;;;;;6.80;95326.00;;;;8441372;28;20643;-75
2023/04/14 04:32:08;;;;;;;28.23;10.63;;;;;6.80;95327.00;;;;8430269;28;20200;-75
2023/04/14 04:36:13;;;;;;;27.30;10.93;;;;;6.80;95326.00;;;;8442389;28;20194;-76
2023/04/14 04:40:17;;;;;;;29.27;10.70;;;;;6.70;95334.00;;;;8441090;28;20195;-76
2023/04/14 04:44:20;;;;;;;26.27;10.50;;;;;6.70;95339.00;;;;8448674;28;20195;-77
2023/04/14 04:48:26;;;;;;;26.60;9.83;;;;;6.80;95345.00;;;;8442612;28;20696;-75
2023/04/14 04:52:33;;;;;;;27.73;11.50;;;;;6.80;95350.00;;;;8426062;28;20926;-75
2023/04/14 04:56:36;;;;;;;23.53;10.13;;;;;6.90;95347.00;;;;8443633;28;20228;-76
2023/04/14 05:00:40;;;;;;;22.57;10.03;;;;;6.90;95351.00;;;;8442451;28;20195;-76
2023/04/14 05:04:43;;;;;;;25.60;10.73;;;;;6.90;95345.00;;;;8441558;28;20765;-75
2023/04/14 05:08:53;;;;;;;27.53;10.30;;;;;7.00;95334.00;;;;8445895;27;20258;-76
2023/04/14 05:12:56;;;;;;;29.03;10.33;;;;;7.00;95334.00;;;;8449335;27;20867;-76
2023/04/14 05:16:59;;;;;;;24.67;9.43;;;;;7.10;95348.00;;;;8443473;28;20246;-76
2023/04/14 05:21:03;;;;;;;27.90;9.77;;;;;7.00;95351.00;;;;8448119;28;20190;-76
2023/04/14 05:25:10;;;;;;;28.87;11.13;;;;;7.10;95342.00;;;;8443802;27;20248;-79
2023/04/14 05:29:14;;;;;;;26.97;11.57;;;;;7.10;95334.00;;;;8443557;28;20232;-78
2023/04/14 05:33:20;;;;;;;28.70;12.17;;;;;7.10;95338.00;;;;8447570;27;20195;-78
2023/04/14 05:37:23;;;;;;;28.13;11.90;;;;;7.20;95354.00;;;;8450343;28;20275;-75
2023/04/14 05:41:48;;;;;;;30.83;12.13;;;;;7.20;95349.00;;;;8442238;27;20195;-73
2023/04/14 05:45:51;;;;;;;32.40;12.23;;;;;7.30;95357.00;;;;8438912;27;20295;-78
2023/04/14 05:49:54;;;;;;;28.87;12.70;;;;;7.40;95366.00;;;;8446443;28;20223;-75
2023/04/14 05:53:58;;;;;;;30.37;13.63;;;;;7.50;95364.00;;;;8428324;28;20287;-79
2023/04/14 05:58:04;;;;;;;31.40;13.50;;;;;7.50;95363.00;;;;8444836;27;20226;-77
2023/04/14 06:02:07;;;;;;;31.03;13.33;;;;;7.50;95364.00;;;;8450063;28;20663;-76
2023/04/14 06:06:13;;;;;;;28.23;12.00;;;;;7.60;95370.00;;;;8449090;28;20205;-76
2023/04/14 06:10:16;;;;;;;26.70;12.87;;;;;7.60;95364.00;;;;8439050;28;20741;-73
2023/04/14 06:14:21;;;;;;;31.07;12.63;;;;;7.70;95360.00;;;;8445091;28;20846;-73
2023/04/14 06:18:24;;;;;;;23.47;11.57;;;;;7.60;95363.00;;;;8446062;27;20200;-71
2023/04/14 06:22:31;;;;;;;27.70;12.17;;;;;7.60;95349.00;;;;8446641;28;20563;-72
2023/04/14 06:26:35;;;;;;;29.87;12.77;;;;;7.70;95372.00;;;;8448850;28;20203;-73
2023/04/14 06:30:43;;;;;;;27.20;12.80;;;;;7.70;95367.00;;;;8442672;27;20333;-74
2023/04/14 06:34:46;;;;;;;28.43;13.17;;;;;7.70;95354.00;;;;8448188;27;20209;-72
2023/04/14 06:38:49;;;;;;;25.17;12.60;;;;;7.70;95360.00;;;;8448386;27;20218;-71
2023/04/14 06:42:55;;;;;;;30.77;12.33;;;;;7.70;95361.00;;;;8447188;28;20225;-73
2023/04/14 06:47:01;;;;;;;28.57;12.13;;;;;7.80;95369.00;;;;8447045;28;20692;-73
2023/04/14 06:51:09;;;;;;;29.00;12.57;;;;;7.80;95357.00;;;;8446425;28;20237;-73
2023/04/14 06:55:12;;;;;;;25.47;11.67;;;;;7.80;95347.00;;;;8435811;27;20201;-73
2023/04/14 06:59:19;;;;;;;29.13;12.03;;;;;7.90;95343.00;;;;8441703;28;20580;-74
2023/04/14 07:03:24;;;;;;;20.53;9.67;;;;;7.90;95348.00;;;;8440950;27;20338;-71
2023/04/14 07:07:27;;;;;;;21.50;10.63;;;;;7.90;95349.00;;;;8441536;28;20625;-74
2023/04/14 07:11:32;;;;;;;26.80;10.17;;;;;8.00;95347.00;;;;8438220;27;20279;-73
2023/04/14 07:15:35;;;;;;;21.93;10.70;;;;;8.10;95335.00;;;;8441122;27;20640;-72
2023/04/14 07:19:39;;;;;;;21.03;10.47;;;;;8.10;95341.00;;;;8446838;28;20388;-73
2023/04/14 07:23:48;;;;;;;18.70;9.77;;;;;8.20;95340.00;;;;8446351;28;20199;-74
2023/04/14 07:27:50;;;;;;;21.47;10.10;;;;;8.20;95338.00;;;;8442960;28;20199;-73
2023/04/14 07:32:05;;;;;;;21.57;9.83;;;;;8.20;95333.00;;;;8437158;27;20311;-73
2023/04/14 07:36:13;;;;;;;18.00;9.43;;;;;8.30;95344.00;;;;8443514;28;20195;-73
2023/04/14 07:40:19;;;;;;;24.20;10.60;;;;;8.30;95339.00;;;;8442189;28;20692;-75
2023/04/14 07:44:22;;;;;;;23.10;9.30;;;;;8.40;95327.00;;;;8425064;28;20244;-71
2023/04/14 07:48:25;;;;;;;27.37;11.93;;;;;8.40;95326.00;;;;8438426;28;20199;-70
2023/04/14 07:52:29;;;;;;;25.13;9.97;;;;;8.50;95322.00;;;;8442582;28;20726;-74
2023/04/14 07:56:32;;;;;;;18.93;9.03;;;;;8.50;95324.00;;;;8442889;28;20309;-73
2023/04/14 08:00:37;;;;;;;14.77;8.50;;;;;8.60;95333.00;;;;8438710;28;21080;-72
2023/04/14 08:04:43;;;;;;;17.13;9.80;;;;;8.60;95331.00;;;;8437285;28;20579;-73
2023/04/14 08:08:47;;;;;;;17.63;8.77;;;;;8.70;95340.00;;;;8446757;28;20202;-72
2023/04/14 08:12:55;;;;;;;18.17;8.48;;;;;8.80;95327.00;;;;8437787;28;20256;-75
2023/04/14 08:16:58;;;;;;;16.43;8.87;;;;;8.80;95320.00;;;;8440273;28;20267;-74
2023/04/14 08:21:02;;;;;;;18.53;9.23;;;;;8.90;95326.00;;;;8422530;28;20203;-78
2023/04/14 08:25:10;;;;;;;13.10;7.70;;;;;9.10;95340.00;;;;8438150;28;20732;-81
2023/04/14 08:29:14;;;;;;;15.70;8.75;;;;;9.10;95354.00;;;;8446452;28;20680;-72
2023/04/14 08:33:22;;;;;;;12.80;7.80;;;;;9.20;95366.00;;;;8441488;28;20240;-75
2023/04/14 08:37:25;;;;;;;11.63;6.80;;;;;9.40;95364.00;;;;8444859;28;20633;-78
2023/04/14 08:41:34;;;;;;;12.10;6.70;;;;;9.50;95368.00;;;;8440174;27;20199;-80
2023/04/14 08:45:41;;;;;;;13.03;7.30;;;;;9.60;95355.00;;;;8429075;27;20203;-75
2023/04/14 08:49:57;;;;;;;10.30;6.63;;;;;9.70;95362.00;;;;8444652;27;20187;-78
2023/04/14 08:54:01;;;;;;;9.82;6.32;;;;;9.80;95356.00;;;;8445681;27;20799;-77
2023/04/14 08:58:09;;;;;;;9.80;6.47;;;;;9.90;95347.00;;;;8445903;27;20199;-75
2023/04/14 09:02:13;;;;;;;12.57;7.07;;;;;10.00;95352.00;;;;8440770;27;20312;-80
2023/04/14 09:06:19;;;;;;;10.52;6.65;;;;;10.00;95366.00;;;;8448783;27;20195;-79
2023/04/14 09:10:23;;;;;;;9.45;6.50;;;;;9.90;95377.00;;;;8442162;28;20578;-79
2023/04/14 09:14:28;;;;;;;10.30;6.43;;;;;10.10;95375.00;;;;8437871;27;20226;-73
2023/04/14 09:18:32;;;;;;;25.70;10.68;;;;;10.10;95364.00;;;;8442474;27;20221;-75
2023/04/14 09:22:37;;;;;;;8.95;6.30;;;;;10.10;95362.00;;;;8444376;28;20187;-83
2023/04/14 09:26:43;;;;;;;8.35;6.75;;;;;10.00;95365.00;;;;8451399;27;20191;-82
2023/04/14 09:30:49;;;;;;;8.30;6.55;;;;;10.10;95378.00;;;;8453177;28;20644;-78
2023/04/14 09:34:55;;;;;;;10.90;7.40;;;;;10.00;95374.00;;;;8448855;27;20194;-76
2023/04/14 09:39:01;;;;;;;13.10;7.50;;;;;9.90;95375.00;;;;8448187;27;20798;-78
2023/04/14 09:43:11;;;;;;;12.60;7.07;;;;;9.90;95378.00;;;;8447126;27;20799;-80
2023/04/14 09:47:20;;;;;;;12.60;7.23;;;;;9.80;95380.00;;;;8448174;28;20245;-81
2023/04/14 09:51:26;;;;;;;12.75;7.22;;;;;9.80;95369.00;;;;8442347;27;20234;-73
2023/04/14 09:55:30;;;;;;;12.43;7.75;;;;;9.90;95341.00;;;;8444469;27;20815;-84
2023/04/14 09:59:34;;;;;;;14.95;8.35;;;;;10.00;95333.00;;;;8440411;27;20200;-78
2023/04/14 10:03:40;;;;;;;14.73;9.00;;;;;10.10;95350.00;;;;8443476;27;20230;-78
2023/04/14 10:07:48;;;;;;;13.82;9.57;;;;;10.30;95355.00;;;;8444061;28;20224;-79
2023/04/14 10:12:14;;;;;;;14.35;10.20;;;;;10.30;95338.00;;;;8450034;28;20262;-74
2023/04/14 10:16:25;;;;;;;17.77;10.15;;;;;10.50;95328.00;;;;8444204;27;20231;-80
2023/04/14 10:20:30;;;;;;;14.77;9.40;;;;;10.70;95359.00;;;;8441698;28;20191;-77
2023/04/14 10:24:33;;;;;;;15.48;9.45;;;;;10.90;95364.00;;;;8439138;27;20324;-78
2023/04/14 10:28:38;;;;;;;16.92;9.38;;;;;11.20;95365.00;;;;8439919;27;20253;-81
2023/04/14 10:32:46;;;;;;;15.57;9.10;;;;;11.20;95366.00;;;;8437884;28;20223;-75
2023/04/14 10:37:12;;;;;;;12.85;8.90;;;;;11.20;95356.00;;;;8437097;27;20204;-78
2023/04/14 10:41:15;;;;;;;13.25;8.57;;;;;11.20;95362.00;;;;8420425;27;20194;-77
2023/04/14 10:45:20;;;;;;;13.43;9.00;;;;;11.20;95360.00;;;;8437986;27;20198;-78
2023/04/14 10:49:29;;;;;;;14.52;9.43;;;;;11.30;95362.00;;;;8444852;27;20198;-74
2023/04/14 10:53:36;;;;;;;15.02;8.93;;;;;11.40;95361.00;;;;8439303;27;20536;-75
2023/04/14 10:57:42;;;;;;;10.93;7.88;;;;;11.60;95350.00;;;;8440302;28;20826;-81
2023/04/14 11:01:54;;;;;;;13.23;7.88;;;;;11.80;95350.00;;;;8437822;28;20920;-75
2023/04/14 11:05:59;;;;;;;9.90;6.72;;;;;12.00;95355.00;;;;8436492;28;20220;-77
2023/04/14 11:10:27;;;;;;;8.90;7.18;;;;;11.80;95345.00;;;;8445039;28;20205;-75
2023/04/14 11:14:31;;;;;;;10.50;7.43;;;;;11.80;95340.00;;;;8439693;28;20821;-82
2023/04/14 11:18:41;;;;;;;11.70;7.35;;;;;12.00;95338.00;;;;8441282;27;20224;-80
2023/04/14 11:22:49;;;;;;;10.77;6.93;;;;;12.00;95320.00;;;;8436496;28;20197;-83
2023/04/14 11:26:55;;;;;;;10.68;7.03;;;;;12.00;95320.00;;;;8428098;28;20194;-81
2023/04/14 11:31:02;;;;;;;9.65;6.47;;;;;12.10;95308.00;;;;8443094;28;20224;-71
2023/04/14 11:35:08;;;;;;;11.45;6.35;;;;;12.10;95296.00;;;;8446760;27;20198;-71
2023/04/14 11:39:18;;;;;;;15.02;6.22;;;;;12.20;95293.00;;;;8441582;28;20199;-74
2023/04/14 11:43:29;;;;;;;9.10;5.75;;;;;12.20;95298.00;;;;8441668;27;20676;-73
2023/04/14 11:47:32;;;;;;;8.90;5.97;;;;;12.10;95294.00;;;;8444301;27;20344;-74
2023/04/14 11:51:36;;;;;;;9.90;5.57;;;;;11.80;95297.00;;;;8445422;28;20230;-73
2023/04/14 11:55:42;;;;;;;8.32;5.93;;;;;11.50;95299.00;;;;8439098;27;20606;-74
2023/04/14 11:59:47;;;;;;;8.93;6.07;;;;;11.30;95293.00;;;;8441129;28;20189;-74
2023/04/14 12:03:52;;;;;;;7.70;6.25;;;;;11.00;95279.00;;;;8444584;28;20695;-74
2023/04/14 12:07:59;;;;;;;11.55;6.88;;;;;11.00;95277.00;;;;8446355;28;20187;-75
2023/04/14 12:12:10;;;;;;;8.90;6.10;;;;;11.00;95285.00;;;;8442461;28;20226;-73
2023/04/14 12:16:18;;;;;;;9.25;6.10;;;;;11.10;95269.00;;;;8444286;28;20417;-72
2023/04/14 12:20:21;;;;;;;6.97;5.60;;;;;11.20;95274.00;;;;8451089;28;20337;-76
2023/04/14 12:24:24;;;;;;;9.73;5.57;;;;;11.40;95271.00;;;;8435529;28;20196;-75
2023/04/14 12:28:28;;;;;;;7.75;5.38;;;;;11.30;95267.00;;;;8449432;27;20244;-75
2023/04/14 12:32:40;;;;;;;5.95;5.18;;;;;11.00;95256.00;;;;8450131;28;20226;-76
2023/04/14 12:36:52;;;;;;;10.50;5.85;;;;;10.70;95254.00;;;;8443449;28;20297;-74
2023/04/14 12:40:57;;;;;;;11.85;5.72;;;;;10.50;95259.00;;;;8444609;27;20193;-76
2023/04/14 12:45:02;;;;;;;6.55;5.35;;;;;10.60;95247.00;;;;8441957;28;20194;-74
2023/04/14 12:49:29;;;;;;;8.52;4.57;;;;;10.80;95245.00;;;;8446191;28;20756;-74
2023/04/14 12:53:32;;;;;;;5.35;4.82;;;;;10.80;95249.00;;;;8446956;27;20279;-74
2023/04/14 12:57:36;;;;;;;6.55;4.57;;;;;11.20;95246.00;;;;8449224;28;20283;-74
2023/04/14 13:01:41;;;;;;;5.82;4.43;;;;;11.70;95252.00;;;;8448756;27;20202;-73
2023/04/14 13:05:48;;;;;;;6.03;4.30;;;;;11.90;95256.00;;;;8428915;27;20198;-72
2023/04/14 13:09:52;;;;;;;6.63;4.47;;;;;12.20;95238.00;;;;8449252;27;20250;-73
2023/04/14 13:13:58;;;;;;;4.53;3.70;;;;;12.40;95251.00;;;;8446650;27;20229;-74
2023/04/14 13:18:01;;;;;;;6.22;4.10;;;;;12.40;95246.00;;;;8451908;27;20932;-73
2023/04/14 13:22:05;;;;;;;5.72;3.85;;;;;12.20;95238.00;;;;8452346;28;20211;-74
2023/04/14 13:26:08;;;;;;;7.97;3.50;;;;;12.20;95237.00;;;;8451004;28;20213;-74
2023/04/14 13:30:13;;;;;;;3.70;3.47;;;;;12.20;95237.00;;;;8452325;28;20191;-73
2023/04/14 13:34:16;;;;;;;3.70;3.40;;;;;12.20;95234.00;;;;8448718;28;20272;-72
2023/04/14 13:38:21;;;;;;;4.30;3.28;;;;;12.20;95231.00;;;;8450602;28;20365;-73
2023/04/14 13:42:24;;;;;;;4.65;3.60;;;;;12.20;95235.00;;;;8447374;28;20205;-73
2023/04/14 13:46:27;;;;;;;5.65;3.40;;;;;12.10;95237.00;;;;8448697;27;20195;-73
2023/04/14 13:50:32;;;;;;;6.85;3.70;;;;;12.00;95223.00;;;;8449558;28;20208;-74
2023/04/14 13:54:37;;;;;;;8.95;4.40;;;;;12.00;95221.00;;;;8437501;27;20236;-73
2023/04/14 13:58:42;;;;;;;5.82;3.25;;;;;12.10;95228.00;;;;8441956;28;20217;-73
2023/04/14 14:02:50;;;;;;;5.82;4.13;;;;;12.20;95228.00;;;;8446013;27;20218;-73
2023/04/14 14:07:02;;;;;;;4.97;3.50;;;;;12.30;95229.00;;;;8432007;27;20223;-73
2023/04/14 14:11:10;;;;;;;3.50;3.20;;;;;12.40;95228.00;;;;8443682;28;20259;-73
2023/04/14 14:15:13;;;;;;;6.65;3.35;;;;;12.30;95243.00;;;;8437185;28;20309;-73
2023/04/14 14:19:17;;;;;;;3.42;3.03;;;;;12.20;95251.00;;;;8443756;27;20195;-73
2023/04/14 14:23:20;;;;;;;4.80;2.20;;;;;11.30;95264.00;;;;8441007;28;20191;-75
2023/04/14 14:27:24;;;;;;;2.53;2.10;;;;;10.50;95262.00;;;;8435966;28;20302;-76
2023/04/14 14:31:27;;;;;;;2.45;1.67;;;;;10.30;95253.00;;;;8439114;28;20548;-74
2023/04/14 14:35:32;;;;;;;1.98;1.77;;;;;10.40;95251.00;;;;8436887;27;20222;-75
2023/04/14 14:39:36;;;;;;;2.72;1.70;;;;;10.40;95248.00;;;;8436967;28;20589;-73
2023/04/14 14:43:40;;;;;;;1.63;1.52;;;;;10.50;95246.00;;;;8437176;28;20203;-74
2023/04/14 14:47:44;;;;;;;1.90;1.77;;;;;10.80;95246.00;;;;8434966;28;20193;-73
2023/04/14 14:51:49;;;;;;;1.85;1.42;;;;;10.90;95253.00;;;;8444311;28;20627;-73
2023/04/14 14:55:54;;;;;;;1.85;1.45;;;;;11.00;95246.00;;;;8447301;28;20221;-72
2023/04/14 15:00:01;;;;;;;4.65;2.20;;;;;11.00;95250.00;;;;8439918;28;20204;-72
2023/04/14 15:04:09;;;;;;;2.85;1.80;;;;;11.00;95241.00;;;;8444630;28;20288;-73
2023/04/14 15:08:14;;;;;;;1.60;1.60;;;;;11.00;95249.00;;;;8443693;28;20228;-73
2023/04/14 15:12:18;;;;;;;3.05;2.13;;;;;11.10;95242.00;;;;8427656;28;20226;-73
2023/04/14 15:16:25;;;;;;;4.88;1.95;;;;;11.00;95242.00;;;;8432793;28;20728;-73
2023/04/14 15:20:28;;;;;;;2.70;2.33;;;;;11.00;95243.00;;;;8425249;27;20204;-73
2023/04/14 15:24:35;;;;;;;2.70;2.10;;;;;10.90;95238.00;;;;8432012;27;20208;-73
2023/04/14 15:28:38;;;;;;;2.33;2.13;;;;;10.80;95246.00;;;;8443330;28;20260;-76
2023/04/14 15:32:42;;;;;;;4.25;3.28;;;;;10.70;95247.00;;;;8431912;28;20736;-73
2023/04/14 15:36:45;;;;;;;3.05;1.90;;;;;10.60;95254.00;;;;8438684;28;20195;-73
2023/04/14 15:40:48;;;;;;;2.28;1.80;;;;;10.40;95246.00;;;;8440450;28;20199;-72
2023/04/14 15:44:53;;;;;;;2.00;1.90;;;;;10.40;95242.00;;;;8430916;27;20263;-72
2023/04/14 15:48:59;;;;;;;2.53;2.30;;;;;10.30;95235.00;;;;8439741;28;20202;-72
2023/04/14 15:53:02;;;;;;;2.00;1.90;;;;;10.30;95237.00;;;;8429868;27;20232;-72
2023/04/14 15:57:06;;;;;;;2.25;1.90;;;;;10.20;95232.00;;;;8439697;28;20202;-74
2023/04/14 16:01:11;;;;;;;2.72;1.90;;;;;10.30;95221.00;;;;8432361;28;20198;-74
2023/04/14 16:05:15;;;;;;;4.20;2.20;;;;;10.40;95236.00;;;;8440905;28;20329;-78
2023/04/14 16:09:19;;;;;;;1.90;1.80;;;;;10.60;95245.00;;;;8421405;28;20254;-78
2023/04/14 16:13:24;;;;;;;2.17;2.05;;;;;10.60;95244.00;;;;8438002;28;20225;-74
2023/04/14 16:17:31;;;;;;;2.65;2.10;;;;;10.50;95242.00;;;;8442221;28;20251;-78
2023/04/14 16:21:35;;;;;;;2.40;2.10;;;;;10.40;95236.00;;;;8442459;28;20295;-77
2023/04/14 16:25:38;;;;;;;2.30;2.15;;;;;10.40;95247.00;;;;8443187;28;20200;-78
2023/04/14 16:29:42;;;;;;;2.20;2.10;;;;;10.40;95248.00;;;;8442385;28;20664;-77
2023/04/14 16:33:45;;;;;;;2.83;2.60;;;;;10.40;95241.00;;;;8446150;28;20225;-76
2023/04/14 16:37:51;;;;;;;2.85;1.90;;;;;10.30;95238.00;;;;8443635;28;20197;-77
2023/04/14 16:41:54;;;;;;;2.78;2.50;;;;;10.30;95240.00;;;;8438624;28;20380;-75
2023/04/14 16:46:05;;;;;;;2.50;2.30;;;;;10.40;95238.00;;;;8435699;28;20236;-79
2023/04/14 16:50:09;;;;;;;4.10;2.47;;;;;10.40;95227.00;;;;8447052;28;20277;-76
2023/04/14 16:54:16;;;;;;;2.90;2.20;;;;;10.40;95223.00;;;;8434920;28;20235;-75
2023/04/14 16:58:19;;;;;;;2.88;2.58;;;;;10.40;95222.00;;;;8446005;28;20598;-72
2023/04/14 17:02:22;;;;;;;2.72;2.53;;;;;10.40;95221.00;;;;8437928;28;20257;-75
2023/04/14 17:06:26;;;;;;;3.45;2.28;;;;;10.20;95229.00;;;;8442701;28;20405;-74
2023/04/14 17:10:30;;;;;;;2.38;2.17;;;;;10.10;95222.00;;;;8441860;28;20207;-73
2023/04/14 17:14:37;;;;;;;5.00;2.42;;;;;10.10;95233.00;;;;8442230;27;20218;-73
2023/04/14 17:18:42;;;;;;;2.90;2.70;;;;;9.90;95225.00;;;;8448141;27;20209;-75
2023/04/14 17:22:49;;;;;;;2.85;2.65;;;;;9.90;95227.00;;;;8450392;27;20199;-73
2023/04/14 17:26:56;;;;;;;3.20;2.90;;;;;9.80;95221.00;;;;8449978;27;20199;-73
2023/04/14 17:30:59;;;;;;;3.95;3.28;;;;;9.70;95225.00;;;;8442898;27;20248;-74
2023/04/14 17:35:04;;;;;;;4.47;3.35;;;;;9.70;95229.00;;;;8450939;27;20255;-74
2023/04/14 17:39:12;;;;;;;5.93;3.42;;;;;9.60;95234.00;;;;8449255;27;20501;-75
2023/04/14 17:43:17;;;;;;;6.53;3.77;;;;;9.60;95226.00;;;;8451700;27;20205;-76
2023/04/14 17:47:20;;;;;;;3.63;3.30;;;;;9.60;95235.00;;;;8448969;28;20202;-72
2023/04/14 17:51:30;;;;;;;3.60;2.95;;;;;9.60;95236.00;;;;8444778;27;20199;-75
2023/04/14 17:55:33;;;;;;;3.60;3.30;;;;;9.60;95243.00;;;;8445227;27;20230;-75
2023/04/14 17:59:38;;;;;;;3.88;2.50;;;;;9.60;95245.00;;;;8448481;27;20211;-73
2023/04/14 18:03:42;;;;;;;4.88;3.05;;;;;9.60;95240.00;;;;8451558;27;20912;-74
2023/04/14 18:07:45;;;;;;;4.07;3.38;;;;;9.60;95246.00;;;;8443028;28;20195;-76
2023/04/14 18:11:50;;;;;;;3.67;3.30;;;;;9.50;95245.00;;;;8443908;28;20202;-73
2023/04/14 18:15:55;;;;;;;3.20;2.90;;;;;9.40;95240.00;;;;8441657;28;20310;-75
2023/04/14 18:20:00;;;;;;;3.67;3.38;;;;;9.30;95240.00;;;;8439199;27;20244;-74
2023/04/14 18:24:06;;;;;;;4.73;3.47;;;;;9.30;95243.00;;;;8439967;28;20220;-75
2023/04/14 18:28:12;;;;;;;3.70;3.40;;;;;9.30;95250.00;;;;8447165;27;20758;-74
2023/04/14 18:32:19;;;;;;;3.93;3.27;;;;;9.30;95254.00;;;;8441182;28;20749;-75
2023/04/14 18:36:31;;;;;;;6.57;3.70;;;;;9.20;95254.00;;;;8445500;27;20226;-74
2023/04/14 18:40:39;;;;;;;3.93;3.53;;;;;9.00;95253.00;;;;8444420;27;20195;-76
2023/04/14 18:44:42;;;;;;;5.18;3.65;;;;;8.90;95245.00;;;;8446419;28;20195;-73
2023/04/14 18:48:50;;;;;;;4.03;3.67;;;;;8.90;95253.00;;;;8443862;28;20937;-74
2023/04/14 18:52:53;;;;;;;4.43;3.88;;;;;8.90;95260.00;;;;8445610;28;20616;-73
2023/04/14 18:56:56;;;;;;;4.53;4.07;;;;;8.80;95255.00;;;;8440292;28;20295;-74
2023/04/14 19:01:03;;;;;;;4.07;3.72;;;;;8.80;95257.00;;;;8446532;28;20199;-77
2023/04/14 19:05:08;;;;;;;4.10;3.80;;;;;8.80;95259.00;;;;8445647;27;20295;-77
2023/04/14 19:09:12;;;;;;;5.65;4.35;;;;;8.90;95251.00;;;;8444097;28;20226;-76
2023/04/14 19:13:15;;;;;;;5.13;4.30;;;;;8.90;95262.00;;;;8443365;27;20563;-74
2023/04/14 19:17:21;;;;;;;7.37;4.30;;;;;8.90;95263.00;;;;8441100;28;20225;-75
2023/04/14 19:21:26;;;;;;;5.07;4.53;;;;;8.90;95257.00;;;;8443604;27;20202;-76
2023/04/14 19:25:29;;;;;;;6.05;4.32;;;;;8.90;95263.00;;;;8439479;27;20896;-73
2023/04/14 19:29:34;;;;;;;6.60;4.53;;;;;8.90;95270.00;;;;8432044;27;20207;-74
2023/04/14 19:33:38;;;;;;;6.10;4.47;;;;;8.90;95266.00;;;;8436225;27;20240;-76
2023/04/14 19:37:43;;;;;;;5.90;4.45;;;;;8.90;95263.00;;;;8436498;27;20198;-73
2023/04/14 19:41:46;;;;;;;5.87;4.60;;;;;8.90;95266.00;;;;8445246;27;20199;-73
2023/04/14 19:45:51;;;;;;;6.80;4.53;;;;;8.80;95259.00;;;;8441442;27;20205;-74
2023/04/14 19:49:58;;;;;;;5.20;4.47;;;;;8.80;95256.00;;;;8448624;27;20195;-73
2023/04/14 19:54:04;;;;;;;4.77;4.27;;;;;8.90;95264.00;;;;8443424;27;20223;-71
2023/04/14 19:58:11;;;;;;;6.23;4.83;;;;;8.90;95263.00;;;;8440699;28;20202;-73
2023/04/14 20:02:15;;;;;;;5.15;4.65;;;;;8.90;95266.00;;;;8446652;27;20218;-72
2023/04/14 20:06:18;;;;;;;5.03;4.10;;;;;8.90;95259.00;;;;8443848;28;20191;-76
2023/04/14 20:10:24;;;;;;;4.37;3.97;;;;;8.90;95259.00;;;;8444562;28;20251;-77
2023/04/14 20:14:27;;;;;;;5.93;4.60;;;;;8.80;95260.00;;;;8444434;28;20577;-74
2023/04/14 20:18:34;;;;;;;7.10;4.40;;;;;8.70;95258.00;;;;8443871;28;20222;-75
2023/04/14 20:22:40;;;;;;;6.17;4.27;;;;;8.70;95263.00;;;;8442844;28;20203;-77
2023/04/14 20:26:48;;;;;;;5.07;4.57;;;;;8.60;95252.00;;;;8438087;28;20195;-75
2023/04/14 20:30:53;;;;;;;4.40;4.00;;;;;8.60;95270.00;;;;8443502;28;20199;-75